EHMG

L9-ff-1 Sea

L9-ff-1 Sea, The Netherlands
METAR EHMG 251825Z AUTO 23018KT 9999 FEW035 15/07 Q1036 W///H///
Observed Flight Rules
Sep-25 @ 18:25 UTC (43 minutes ago) Visual Flight Rules
Wind Visibility Clouds
230° at 18 knots 10,000+ meters
  • Few at 3,500' AGL
Temperatures Readings
Current 15°C / 59°F
Dewpoint 7°C / 45°F
Humidity 59%
Altimeter 30.59" Hg
Pressure 1036 hPa
Elevation 50
METAR EHMG 251825Z AUTO 23018KT 9999 FEW035 15/07 Q1036 W///H///
Observed Flight Rules
Sep-25 @ 18:25 UTC
(43 minutes ago)
VFR
Wind Visibility
230° at 18 knots 10,000+ meters
Clouds
  • Few at 3,500' AGL
Temperature Dewpoint
15°C / 59°F 7°C / 45°F
Humidity Altimeter Pressure
59% 30.59" Hg 1036 hPa